sensor_id;sensor_type;location;lat;lon;timestamp;P1;durP1;ratioP1;P2;durP2;ratioP2
15913;SDS011;8055;51.930;8.840;2023-07-20T00:01:27;5.03;;;3.40;;
15913;SDS011;8055;51.930;8.840;2023-07-20T00:03:53;4.43;;;3.55;;
15913;SDS011;8055;51.930;8.840;2023-07-20T00:06:24;4.63;;;2.97;;
15913;SDS011;8055;51.930;8.840;2023-07-20T00:08:51;5.07;;;3.50;;
15913;SDS011;8055;51.930;8.840;2023-07-20T00:11:16;4.10;;;2.88;;
15913;SDS011;8055;51.930;8.840;2023-07-20T00:13:42;4.82;;;2.90;;
15913;SDS011;8055;51.930;8.840;2023-07-20T00:16:07;4.05;;;2.88;;
15913;SDS011;8055;51.930;8.840;2023-07-20T00:18:33;3.40;;;2.67;;
15913;SDS011;8055;51.930;8.840;2023-07-20T00:20:58;4.40;;;2.72;;
15913;SDS011;8055;51.930;8.840;2023-07-20T00:23:26;3.00;;;2.70;;
15913;SDS011;8055;51.930;8.840;2023-07-20T00:25:52;4.35;;;2.90;;
15913;SDS011;8055;51.930;8.840;2023-07-20T00:28:18;3.78;;;2.42;;
15913;SDS011;8055;51.930;8.840;2023-07-20T00:30:43;5.22;;;2.53;;
15913;SDS011;8055;51.930;8.840;2023-07-20T00:33:10;8.13;;;2.83;;
15913;SDS011;8055;51.930;8.840;2023-07-20T00:35:36;3.33;;;2.70;;
15913;SDS011;8055;51.930;8.840;2023-07-20T00:38:02;4.72;;;2.53;;
15913;SDS011;8055;51.930;8.840;2023-07-20T00:40:28;5.30;;;2.60;;
15913;SDS011;8055;51.930;8.840;2023-07-20T00:42:54;3.83;;;2.60;;
15913;SDS011;8055;51.930;8.840;2023-07-20T00:45:19;2.00;;;1.90;;
15913;SDS011;8055;51.930;8.840;2023-07-20T00:47:45;3.67;;;2.40;;
15913;SDS011;8055;51.930;8.840;2023-07-20T00:50:10;2.50;;;1.95;;
15913;SDS011;8055;51.930;8.840;2023-07-20T00:52:35;4.20;;;2.00;;
15913;SDS011;8055;51.930;8.840;2023-07-20T00:55:04;1.75;;;1.60;;
15913;SDS011;8055;51.930;8.840;2023-07-20T00:57:30;3.72;;;1.98;;
15913;SDS011;8055;51.930;8.840;2023-07-20T00:59:55;2.20;;;1.92;;
15913;SDS011;8055;51.930;8.840;2023-07-20T01:02:21;5.13;;;2.13;;
15913;SDS011;8055;51.930;8.840;2023-07-20T01:04:46;3.20;;;2.10;;
15913;SDS011;8055;51.930;8.840;2023-07-20T01:07:14;2.58;;;2.35;;
15913;SDS011;8055;51.930;8.840;2023-07-20T01:09:51;4.35;;;2.20;;
15913;SDS011;8055;51.930;8.840;2023-07-20T01:12:27;4.15;;;2.20;;
15913;SDS011;8055;51.930;8.840;2023-07-20T01:14:59;3.38;;;2.35;;
15913;SDS011;8055;51.930;8.840;2023-07-20T01:17:25;3.75;;;2.25;;
15913;SDS011;8055;51.930;8.840;2023-07-20T01:19:50;3.67;;;2.60;;
15913;SDS011;8055;51.930;8.840;2023-07-20T01:22:21;4.05;;;2.75;;
15913;SDS011;8055;51.930;8.840;2023-07-20T01:33:17;6.18;;;2.90;;
15913;SDS011;8055;51.930;8.840;2023-07-20T01:35:44;4.10;;;2.92;;
15913;SDS011;8055;51.930;8.840;2023-07-20T01:38:13;5.13;;;3.00;;
15913;SDS011;8055;51.930;8.840;2023-07-20T01:40:39;4.40;;;2.60;;
15913;SDS011;8055;51.930;8.840;2023-07-20T01:43:05;6.55;;;3.58;;
15913;SDS011;8055;51.930;8.840;2023-07-20T01:45:31;6.10;;;3.13;;
15913;SDS011;8055;51.930;8.840;2023-07-20T01:47:56;4.45;;;3.25;;
15913;SDS011;8055;51.930;8.840;2023-07-20T01:50:22;3.40;;;3.10;;
15913;SDS011;8055;51.930;8.840;2023-07-20T01:52:47;5.65;;;3.38;;
15913;SDS011;8055;51.930;8.840;2023-07-20T01:55:13;4.95;;;4.00;;
15913;SDS011;8055;51.930;8.840;2023-07-20T01:57:38;5.47;;;4.10;;
15913;SDS011;8055;51.930;8.840;2023-07-20T02:00:04;4.93;;;3.60;;
15913;SDS011;8055;51.930;8.840;2023-07-20T02:02:30;5.47;;;3.60;;
15913;SDS011;8055;51.930;8.840;2023-07-20T02:04:55;5.63;;;4.18;;
15913;SDS011;8055;51.930;8.840;2023-07-20T02:07:21;4.05;;;3.38;;
15913;SDS011;8055;51.930;8.840;2023-07-20T02:09:47;5.30;;;4.35;;
15913;SDS011;8055;51.930;8.840;2023-07-20T02:12:12;5.47;;;4.68;;
15913;SDS011;8055;51.930;8.840;2023-07-20T02:14:37;5.03;;;4.38;;
15913;SDS011;8055;51.930;8.840;2023-07-20T02:17:04;6.45;;;5.60;;
15913;SDS011;8055;51.930;8.840;2023-07-20T02:19:29;8.60;;;6.32;;
15913;SDS011;8055;51.930;8.840;2023-07-20T02:21:55;8.57;;;6.22;;
15913;SDS011;8055;51.930;8.840;2023-07-20T02:24:20;5.88;;;5.10;;
15913;SDS011;8055;51.930;8.840;2023-07-20T02:26:46;8.32;;;6.85;;
15913;SDS011;8055;51.930;8.840;2023-07-20T02:29:11;6.70;;;6.05;;
15913;SDS011;8055;51.930;8.840;2023-07-20T02:31:37;7.15;;;6.45;;
15913;SDS011;8055;51.930;8.840;2023-07-20T02:34:04;7.82;;;6.00;;
15913;SDS011;8055;51.930;8.840;2023-07-20T02:36:30;7.68;;;5.80;;
15913;SDS011;8055;51.930;8.840;2023-07-20T02:38:57;10.35;;;6.40;;
15913;SDS011;8055;51.930;8.840;2023-07-20T02:41:23;11.80;;;7.72;;
15913;SDS011;8055;51.930;8.840;2023-07-20T02:43:48;11.07;;;9.43;;
15913;SDS011;8055;51.930;8.840;2023-07-20T02:46:15;10.20;;;9.20;;
15913;SDS011;8055;51.930;8.840;2023-07-20T02:48:40;11.57;;;9.63;;
15913;SDS011;8055;51.930;8.840;2023-07-20T02:51:05;14.85;;;11.13;;
15913;SDS011;8055;51.930;8.840;2023-07-20T02:53:32;16.83;;;12.90;;
15913;SDS011;8055;51.930;8.840;2023-07-20T02:55:58;17.45;;;14.30;;
15913;SDS011;8055;51.930;8.840;2023-07-20T02:58:23;20.00;;;15.75;;
15913;SDS011;8055;51.930;8.840;2023-07-20T03:00:49;16.45;;;14.23;;
15913;SDS011;8055;51.930;8.840;2023-07-20T03:03:14;19.75;;;15.20;;
15913;SDS011;8055;51.930;8.840;2023-07-20T03:05:42;18.65;;;15.85;;
15913;SDS011;8055;51.930;8.840;2023-07-20T03:08:08;17.05;;;15.30;;
15913;SDS011;8055;51.930;8.840;2023-07-20T03:10:38;17.88;;;14.80;;
15913;SDS011;8055;51.930;8.840;2023-07-20T03:13:05;21.20;;;16.48;;
15913;SDS011;8055;51.930;8.840;2023-07-20T03:15:31;19.02;;;15.68;;
15913;SDS011;8055;51.930;8.840;2023-07-20T03:17:56;20.60;;;16.05;;
15913;SDS011;8055;51.930;8.840;2023-07-20T03:20:23;17.67;;;15.10;;
15913;SDS011;8055;51.930;8.840;2023-07-20T03:22:49;20.00;;;15.52;;
15913;SDS011;8055;51.930;8.840;2023-07-20T03:25:14;15.73;;;14.02;;
15913;SDS011;8055;51.930;8.840;2023-07-20T03:27:39;17.38;;;15.15;;
15913;SDS011;8055;51.930;8.840;2023-07-20T03:30:05;20.35;;;16.70;;
15913;SDS011;8055;51.930;8.840;2023-07-20T03:32:32;20.42;;;17.83;;
15913;SDS011;8055;51.930;8.840;2023-07-20T03:34:57;27.08;;;20.88;;
15913;SDS011;8055;51.930;8.840;2023-07-20T03:37:23;31.58;;;24.73;;
15913;SDS011;8055;51.930;8.840;2023-07-20T03:39:48;40.25;;;28.58;;
15913;SDS011;8055;51.930;8.840;2023-07-20T03:42:14;45.30;;;30.73;;
15913;SDS011;8055;51.930;8.840;2023-07-20T03:44:39;44.03;;;29.88;;
15913;SDS011;8055;51.930;8.840;2023-07-20T03:47:05;45.25;;;31.35;;
15913;SDS011;8055;51.930;8.840;2023-07-20T03:49:30;43.80;;;29.88;;
15913;SDS011;8055;51.930;8.840;2023-07-20T03:51:56;41.10;;;30.50;;
15913;SDS011;8055;51.930;8.840;2023-07-20T03:54:21;39.35;;;29.38;;
15913;SDS011;8055;51.930;8.840;2023-07-20T03:56:46;45.30;;;31.73;;
15913;SDS011;8055;51.930;8.840;2023-07-20T03:59:12;45.60;;;32.50;;
15913;SDS011;8055;51.930;8.840;2023-07-20T04:01:37;43.53;;;32.08;;
15913;SDS011;8055;51.930;8.840;2023-07-20T04:04:06;40.30;;;31.33;;
15913;SDS011;8055;51.930;8.840;2023-07-20T04:06:33;43.28;;;32.55;;
15913;SDS011;8055;51.930;8.840;2023-07-20T04:08:59;46.80;;;32.05;;
15913;SDS011;8055;51.930;8.840;2023-07-20T04:11:24;42.13;;;30.73;;
15913;SDS011;8055;51.930;8.840;2023-07-20T04:13:49;39.90;;;30.05;;
15913;SDS011;8055;51.930;8.840;2023-07-20T04:16:15;47.47;;;30.67;;
15913;SDS011;8055;51.930;8.840;2023-07-20T04:18:40;43.53;;;30.95;;
15913;SDS011;8055;51.930;8.840;2023-07-20T04:21:07;41.60;;;28.98;;
15913;SDS011;8055;51.930;8.840;2023-07-20T04:23:33;23.80;;;12.30;;
15913;SDS011;8055;51.930;8.840;2023-07-20T04:26:00;15.13;;;11.05;;
15913;SDS011;8055;51.930;8.840;2023-07-20T04:28:26;14.40;;;9.13;;
15913;SDS011;8055;51.930;8.840;2023-07-20T04:30:52;9.57;;;7.47;;
15913;SDS011;8055;51.930;8.840;2023-07-20T04:33:17;10.70;;;7.72;;
15913;SDS011;8055;51.930;8.840;2023-07-20T04:35:53;10.20;;;7.10;;
15913;SDS011;8055;51.930;8.840;2023-07-20T04:38:19;8.48;;;6.95;;
15913;SDS011;8055;51.930;8.840;2023-07-20T04:40:46;7.13;;;6.40;;
15913;SDS011;8055;51.930;8.840;2023-07-20T04:43:15;7.88;;;6.50;;
15913;SDS011;8055;51.930;8.840;2023-07-20T04:45:41;6.82;;;6.10;;
15913;SDS011;8055;51.930;8.840;2023-07-20T04:48:08;9.18;;;6.15;;
15913;SDS011;8055;51.930;8.840;2023-07-20T04:50:40;6.57;;;5.33;;
15913;SDS011;8055;51.930;8.840;2023-07-20T04:53:05;7.88;;;5.68;;
15913;SDS011;8055;51.930;8.840;2023-07-20T04:55:31;9.07;;;5.95;;
15913;SDS011;8055;51.930;8.840;2023-07-20T04:57:59;6.55;;;5.53;;
15913;SDS011;8055;51.930;8.840;2023-07-20T05:00:25;6.20;;;5.10;;
15913;SDS011;8055;51.930;8.840;2023-07-20T05:02:51;5.55;;;5.03;;
15913;SDS011;8055;51.930;8.840;2023-07-20T05:05:16;6.85;;;5.70;;
15913;SDS011;8055;51.930;8.840;2023-07-20T05:07:41;7.75;;;5.32;;
15913;SDS011;8055;51.930;8.840;2023-07-20T05:10:07;6.70;;;5.38;;
15913;SDS011;8055;51.930;8.840;2023-07-20T05:12:33;7.63;;;5.72;;
15913;SDS011;8055;51.930;8.840;2023-07-20T05:14:58;8.23;;;5.15;;
15913;SDS011;8055;51.930;8.840;2023-07-20T05:17:24;6.60;;;5.90;;
15913;SDS011;8055;51.930;8.840;2023-07-20T05:19:50;7.93;;;5.22;;
15913;SDS011;8055;51.930;8.840;2023-07-20T05:22:16;7.78;;;5.80;;
15913;SDS011;8055;51.930;8.840;2023-07-20T05:24:41;8.07;;;5.40;;
15913;SDS011;8055;51.930;8.840;2023-07-20T05:27:07;8.05;;;5.90;;
15913;SDS011;8055;51.930;8.840;2023-07-20T05:29:32;6.22;;;5.60;;
15913;SDS011;8055;51.930;8.840;2023-07-20T05:31:58;9.35;;;6.50;;
15913;SDS011;8055;51.930;8.840;2023-07-20T05:34:23;10.68;;;6.25;;
15913;SDS011;8055;51.930;8.840;2023-07-20T05:36:49;8.02;;;6.20;;
15913;SDS011;8055;51.930;8.840;2023-07-20T05:39:16;7.22;;;5.97;;
15913;SDS011;8055;51.930;8.840;2023-07-20T05:41:42;8.68;;;6.07;;
15913;SDS011;8055;51.930;8.840;2023-07-20T05:44:08;7.82;;;6.00;;
15913;SDS011;8055;51.930;8.840;2023-07-20T05:46:33;9.02;;;6.18;;
15913;SDS011;8055;51.930;8.840;2023-07-20T05:48:58;8.07;;;5.00;;
15913;SDS011;8055;51.930;8.840;2023-07-20T05:51:24;6.28;;;5.68;;
15913;SDS011;8055;51.930;8.840;2023-07-20T05:53:49;6.55;;;5.38;;
15913;SDS011;8055;51.930;8.840;2023-07-20T05:56:14;6.13;;;5.50;;
15913;SDS011;8055;51.930;8.840;2023-07-20T05:58:40;7.22;;;5.45;;
15913;SDS011;8055;51.930;8.840;2023-07-20T06:01:05;6.07;;;5.28;;
15913;SDS011;8055;51.930;8.840;2023-07-20T06:03:31;6.65;;;5.03;;
15913;SDS011;8055;51.930;8.840;2023-07-20T06:06:01;5.85;;;5.25;;
15913;SDS011;8055;51.930;8.840;2023-07-20T06:08:28;6.55;;;4.40;;
15913;SDS011;8055;51.930;8.840;2023-07-20T06:10:53;5.03;;;4.57;;
15913;SDS011;8055;51.930;8.840;2023-07-20T06:13:19;4.95;;;4.22;;
15913;SDS011;8055;51.930;8.840;2023-07-20T06:15:44;6.75;;;4.20;;
15913;SDS011;8055;51.930;8.840;2023-07-20T06:18:10;4.85;;;4.03;;
15913;SDS011;8055;51.930;8.840;2023-07-20T06:20:35;6.55;;;5.15;;
15913;SDS011;8055;51.930;8.840;2023-07-20T06:23:01;4.78;;;4.38;;
15913;SDS011;8055;51.930;8.840;2023-07-20T06:25:26;4.13;;;3.72;;
15913;SDS011;8055;51.930;8.840;2023-07-20T06:27:51;5.53;;;4.40;;
15913;SDS011;8055;51.930;8.840;2023-07-20T06:30:17;4.90;;;4.40;;
15913;SDS011;8055;51.930;8.840;2023-07-20T06:32:43;3.80;;;3.42;;
15913;SDS011;8055;51.930;8.840;2023-07-20T06:35:08;4.43;;;4.03;;
15913;SDS011;8055;51.930;8.840;2023-07-20T06:37:34;4.88;;;4.38;;
15913;SDS011;8055;51.930;8.840;2023-07-20T06:40:01;4.85;;;3.70;;
15913;SDS011;8055;51.930;8.840;2023-07-20T06:42:28;5.60;;;4.40;;
15913;SDS011;8055;51.930;8.840;2023-07-20T06:44:54;5.80;;;3.85;;
15913;SDS011;8055;51.930;8.840;2023-07-20T06:47:20;5.10;;;3.67;;
15913;SDS011;8055;51.930;8.840;2023-07-20T06:49:45;3.88;;;3.45;;
15913;SDS011;8055;51.930;8.840;2023-07-20T06:52:10;4.53;;;3.53;;
15913;SDS011;8055;51.930;8.840;2023-07-20T06:54:36;4.22;;;2.75;;
15913;SDS011;8055;51.930;8.840;2023-07-20T06:57:01;3.45;;;2.60;;
15913;SDS011;8055;51.930;8.840;2023-07-20T06:59:27;3.03;;;2.50;;
15913;SDS011;8055;51.930;8.840;2023-07-20T07:01:52;3.17;;;2.65;;
15913;SDS011;8055;51.930;8.840;2023-07-20T07:04:17;2.75;;;2.55;;
15913;SDS011;8055;51.930;8.840;2023-07-20T07:06:43;3.28;;;2.47;;
15913;SDS011;8055;51.930;8.840;2023-07-20T07:09:09;3.47;;;2.53;;
15913;SDS011;8055;51.930;8.840;2023-07-20T07:11:34;4.57;;;2.10;;
15913;SDS011;8055;51.930;8.840;2023-07-20T07:14:00;3.30;;;2.17;;
15913;SDS011;8055;51.930;8.840;2023-07-20T07:16:25;2.35;;;1.98;;
15913;SDS011;8055;51.930;8.840;2023-07-20T07:18:51;2.55;;;1.80;;
15913;SDS011;8055;51.930;8.840;2023-07-20T07:21:16;1.80;;;1.70;;
15913;SDS011;8055;51.930;8.840;2023-07-20T07:23:42;1.70;;;1.60;;
15913;SDS011;8055;51.930;8.840;2023-07-20T07:26:08;4.30;;;1.98;;
15913;SDS011;8055;51.930;8.840;2023-07-20T07:28:34;3.10;;;1.55;;
15913;SDS011;8055;51.930;8.840;2023-07-20T07:31:00;1.88;;;1.55;;
15913;SDS011;8055;51.930;8.840;2023-07-20T07:33:25;1.95;;;1.70;;
15913;SDS011;8055;51.930;8.840;2023-07-20T07:35:51;2.80;;;1.65;;
15913;SDS011;8055;51.930;8.840;2023-07-20T07:38:19;2.15;;;1.95;;
15913;SDS011;8055;51.930;8.840;2023-07-20T07:40:45;2.95;;;2.10;;
15913;SDS011;8055;51.930;8.840;2023-07-20T07:43:11;2.55;;;1.90;;
15913;SDS011;8055;51.930;8.840;2023-07-20T07:45:38;4.10;;;1.75;;
15913;SDS011;8055;51.930;8.840;2023-07-20T07:48:06;2.08;;;1.70;;
15913;SDS011;8055;51.930;8.840;2023-07-20T07:50:33;1.75;;;1.60;;
15913;SDS011;8055;51.930;8.840;2023-07-20T07:52:59;2.60;;;1.75;;
15913;SDS011;8055;51.930;8.840;2023-07-20T07:55:24;2.22;;;1.90;;
15913;SDS011;8055;51.930;8.840;2023-07-20T07:57:51;2.70;;;1.80;;
15913;SDS011;8055;51.930;8.840;2023-07-20T08:00:17;2.95;;;1.95;;
15913;SDS011;8055;51.930;8.840;2023-07-20T08:02:44;1.80;;;1.63;;
15913;SDS011;8055;51.930;8.840;2023-07-20T08:05:10;2.33;;;1.58;;
15913;SDS011;8055;51.930;8.840;2023-07-20T08:07:36;1.85;;;1.45;;
15913;SDS011;8055;51.930;8.840;2023-07-20T08:10:02;2.50;;;1.27;;
15913;SDS011;8055;51.930;8.840;2023-07-20T08:12:28;1.63;;;1.30;;
15913;SDS011;8055;51.930;8.840;2023-07-20T08:14:54;2.40;;;0.98;;
15913;SDS011;8055;51.930;8.840;2023-07-20T08:17:19;2.88;;;1.60;;
15913;SDS011;8055;51.930;8.840;2023-07-20T08:19:45;5.13;;;2.08;;
15913;SDS011;8055;51.930;8.840;2023-07-20T08:22:11;2.90;;;1.50;;
15913;SDS011;8055;51.930;8.840;2023-07-20T08:24:40;6.63;;;2.13;;
15913;SDS011;8055;51.930;8.840;2023-07-20T08:27:06;1.50;;;1.10;;
15913;SDS011;8055;51.930;8.840;2023-07-20T08:29:32;5.97;;;2.20;;
15913;SDS011;8055;51.930;8.840;2023-07-20T08:31:57;3.25;;;1.58;;
15913;SDS011;8055;51.930;8.840;2023-07-20T08:34:22;3.15;;;1.20;;
15913;SDS011;8055;51.930;8.840;2023-07-20T08:36:48;3.47;;;1.75;;
15913;SDS011;8055;51.930;8.840;2023-07-20T08:39:13;2.13;;;1.23;;
15913;SDS011;8055;51.930;8.840;2023-07-20T08:41:39;5.57;;;2.08;;
15913;SDS011;8055;51.930;8.840;2023-07-20T08:44:07;5.20;;;2.22;;
15913;SDS011;8055;51.930;8.840;2023-07-20T08:46:34;1.95;;;1.10;;
15913;SDS011;8055;51.930;8.840;2023-07-20T08:49:00;3.05;;;1.30;;
15913;SDS011;8055;51.930;8.840;2023-07-20T08:51:27;2.15;;;0.98;;
15913;SDS011;8055;51.930;8.840;2023-07-20T08:53:55;2.05;;;1.27;;
15913;SDS011;8055;51.930;8.840;2023-07-20T08:56:20;1.60;;;0.70;;
15913;SDS011;8055;51.930;8.840;2023-07-20T08:58:48;2.60;;;0.70;;
15913;SDS011;8055;51.930;8.840;2023-07-20T09:01:14;0.75;;;0.70;;
15913;SDS011;8055;51.930;8.840;2023-07-20T09:03:42;2.60;;;0.68;;
15913;SDS011;8055;51.930;8.840;2023-07-20T09:06:10;2.10;;;0.60;;
15913;SDS011;8055;51.930;8.840;2023-07-20T09:08:39;1.63;;;0.80;;
15913;SDS011;8055;51.930;8.840;2023-07-20T09:11:06;3.15;;;1.00;;
15913;SDS011;8055;51.930;8.840;2023-07-20T09:13:32;2.75;;;0.70;;
15913;SDS011;8055;51.930;8.840;2023-07-20T09:15:58;1.60;;;0.60;;
15913;SDS011;8055;51.930;8.840;2023-07-20T09:18:28;1.27;;;0.63;;
15913;SDS011;8055;51.930;8.840;2023-07-20T09:21:12;1.13;;;0.65;;
15913;SDS011;8055;51.930;8.840;2023-07-20T09:23:42;2.63;;;0.70;;
15913;SDS011;8055;51.930;8.840;2023-07-20T09:26:11;0.70;;;0.60;;
15913;SDS011;8055;51.930;8.840;2023-07-20T09:28:47;0.82;;;0.70;;
15913;SDS011;8055;51.930;8.840;2023-07-20T09:31:20;1.75;;;0.70;;
15913;SDS011;8055;51.930;8.840;2023-07-20T09:33:47;1.67;;;0.63;;
15913;SDS011;8055;51.930;8.840;2023-07-20T09:36:14;0.68;;;0.60;;
15913;SDS011;8055;51.930;8.840;2023-07-20T09:38:40;2.92;;;0.73;;
15913;SDS011;8055;51.930;8.840;2023-07-20T09:41:07;2.10;;;0.80;;
15913;SDS011;8055;51.930;8.840;2023-07-20T09:43:33;1.40;;;0.85;;
15913;SDS011;8055;51.930;8.840;2023-07-20T09:46:00;1.33;;;0.73;;
15913;SDS011;8055;51.930;8.840;2023-07-20T09:48:25;3.58;;;1.00;;
15913;SDS011;8055;51.930;8.840;2023-07-20T09:50:51;1.52;;;0.80;;
15913;SDS011;8055;51.930;8.840;2023-07-20T09:53:18;2.80;;;0.85;;
15913;SDS011;8055;51.930;8.840;2023-07-20T09:55:45;1.95;;;0.80;;
15913;SDS011;8055;51.930;8.840;2023-07-20T09:58:12;1.67;;;0.90;;
15913;SDS011;8055;51.930;8.840;2023-07-20T10:00:39;1.50;;;1.20;;
15913;SDS011;8055;51.930;8.840;2023-07-20T10:03:06;2.60;;;1.38;;
15913;SDS011;8055;51.930;8.840;2023-07-20T10:05:36;2.70;;;1.10;;
15913;SDS011;8055;51.930;8.840;2023-07-20T10:08:04;1.10;;;1.00;;
15913;SDS011;8055;51.930;8.840;2023-07-20T10:10:34;1.15;;;0.80;;
15913;SDS011;8055;51.930;8.840;2023-07-20T10:13:01;1.13;;;0.90;;
15913;SDS011;8055;51.930;8.840;2023-07-20T10:15:36;1.63;;;0.93;;
15913;SDS011;8055;51.930;8.840;2023-07-20T10:18:16;2.88;;;1.00;;
15913;SDS011;8055;51.930;8.840;2023-07-20T10:20:45;1.00;;;0.90;;
15913;SDS011;8055;51.930;8.840;2023-07-20T10:23:11;1.67;;;1.05;;
15913;SDS011;8055;51.930;8.840;2023-07-20T10:25:37;1.98;;;1.00;;
15913;SDS011;8055;51.930;8.840;2023-07-20T10:28:06;4.20;;;1.00;;
15913;SDS011;8055;51.930;8.840;2023-07-20T10:30:35;6.00;;;1.30;;
15913;SDS011;8055;51.930;8.840;2023-07-20T10:33:02;1.13;;;0.80;;
15913;SDS011;8055;51.930;8.840;2023-07-20T10:35:29;0.65;;;0.63;;
15913;SDS011;8055;51.930;8.840;2023-07-20T10:37:59;1.27;;;0.75;;
15913;SDS011;8055;51.930;8.840;2023-07-20T10:41:16;2.35;;;0.63;;
15913;SDS011;8055;51.930;8.840;2023-07-20T10:43:19;1.08;;;0.70;;
15913;SDS011;8055;51.930;8.840;2023-07-20T10:45:54;2.05;;;0.98;;
15913;SDS011;8055;51.930;8.840;2023-07-20T10:48:23;2.38;;;0.80;;
15913;SDS011;8055;51.930;8.840;2023-07-20T10:51:38;1.63;;;0.57;;
15913;SDS011;8055;51.930;8.840;2023-07-20T10:53:39;0.60;;;0.50;;
15913;SDS011;8055;51.930;8.840;2023-07-20T10:56:06;1.05;;;0.60;;
15913;SDS011;8055;51.930;8.840;2023-07-20T10:58:33;0.65;;;0.60;;
15913;SDS011;8055;51.930;8.840;2023-07-20T11:01:02;2.67;;;0.77;;
15913;SDS011;8055;51.930;8.840;2023-07-20T11:03:33;0.63;;;0.63;;
15913;SDS011;8055;51.930;8.840;2023-07-20T11:06:30;1.13;;;0.60;;
15913;SDS011;8055;51.930;8.840;2023-07-20T11:08:48;3.22;;;0.70;;
15913;SDS011;8055;51.930;8.840;2023-07-20T11:11:20;2.00;;;0.70;;
15913;SDS011;8055;51.930;8.840;2023-07-20T11:13:57;1.75;;;0.80;;
15913;SDS011;8055;51.930;8.840;2023-07-20T11:16:34;0.60;;;0.60;;
15913;SDS011;8055;51.930;8.840;2023-07-20T11:19:05;1.67;;;0.65;;
15913;SDS011;8055;51.930;8.840;2023-07-20T11:21:37;1.42;;;0.70;;
15913;SDS011;8055;51.930;8.840;2023-07-20T11:24:06;1.02;;;0.93;;
15913;SDS011;8055;51.930;8.840;2023-07-20T11:26:51;3.40;;;0.65;;
15913;SDS011;8055;51.930;8.840;2023-07-20T11:29:19;2.28;;;0.77;;
15913;SDS011;8055;51.930;8.840;2023-07-20T11:31:46;0.98;;;0.50;;
15913;SDS011;8055;51.930;8.840;2023-07-20T11:34:16;1.35;;;0.52;;
15913;SDS011;8055;51.930;8.840;2023-07-20T11:36:46;0.93;;;0.60;;
15913;SDS011;8055;51.930;8.840;2023-07-20T11:39:14;0.77;;;0.50;;
15913;SDS011;8055;51.930;8.840;2023-07-20T11:41:46;1.38;;;0.70;;
15913;SDS011;8055;51.930;8.840;2023-07-20T11:46:41;2.08;;;0.82;;
15913;SDS011;8055;51.930;8.840;2023-07-20T11:49:07;0.73;;;0.50;;
15913;SDS011;8055;51.930;8.840;2023-07-20T11:51:34;1.13;;;0.70;;
15913;SDS011;8055;51.930;8.840;2023-07-20T11:54:00;1.17;;;0.60;;
15913;SDS011;8055;51.930;8.840;2023-07-20T11:56:27;0.75;;;0.57;;
15913;SDS011;8055;51.930;8.840;2023-07-20T11:58:56;0.63;;;0.60;;
15913;SDS011;8055;51.930;8.840;2023-07-20T12:01:26;1.95;;;0.60;;
15913;SDS011;8055;51.930;8.840;2023-07-20T12:03:57;2.83;;;0.80;;
15913;SDS011;8055;51.930;8.840;2023-07-20T12:06:25;1.17;;;0.70;;
15913;SDS011;8055;51.930;8.840;2023-07-20T12:08:54;0.80;;;0.60;;
15913;SDS011;8055;51.930;8.840;2023-07-20T12:11:31;0.65;;;0.65;;
15913;SDS011;8055;51.930;8.840;2023-07-20T12:14:01;1.95;;;0.60;;
15913;SDS011;8055;51.930;8.840;2023-07-20T12:16:28;1.48;;;0.70;;
15913;SDS011;8055;51.930;8.840;2023-07-20T12:19:10;2.22;;;0.82;;
15913;SDS011;8055;51.930;8.840;2023-07-20T12:21:39;1.17;;;0.70;;
15913;SDS011;8055;51.930;8.840;2023-07-20T12:24:07;2.78;;;0.90;;
15913;SDS011;8055;51.930;8.840;2023-07-20T12:26:37;1.83;;;0.85;;
15913;SDS011;8055;51.930;8.840;2023-07-20T12:29:03;0.93;;;0.63;;
15913;SDS011;8055;51.930;8.840;2023-07-20T12:31:29;0.70;;;0.70;;
15913;SDS011;8055;51.930;8.840;2023-07-20T12:33:55;0.95;;;0.70;;
15913;SDS011;8055;51.930;8.840;2023-07-20T12:36:21;1.10;;;0.98;;
15913;SDS011;8055;51.930;8.840;2023-07-20T12:38:47;1.48;;;0.90;;
15913;SDS011;8055;51.930;8.840;2023-07-20T12:41:13;1.33;;;0.90;;
15913;SDS011;8055;51.930;8.840;2023-07-20T12:43:42;1.05;;;0.90;;
15913;SDS011;8055;51.930;8.840;2023-07-20T12:46:08;1.10;;;0.75;;
15913;SDS011;8055;51.930;8.840;2023-07-20T12:48:35;1.83;;;1.20;;
15913;SDS011;8055;51.930;8.840;2023-07-20T12:51:05;1.38;;;0.90;;
15913;SDS011;8055;51.930;8.840;2023-07-20T12:53:31;1.10;;;1.00;;
15913;SDS011;8055;51.930;8.840;2023-07-20T12:55:57;1.48;;;1.00;;
15913;SDS011;8055;51.930;8.840;2023-07-20T12:58:23;1.42;;;1.13;;
15913;SDS011;8055;51.930;8.840;2023-07-20T13:00:49;1.20;;;1.00;;
15913;SDS011;8055;51.930;8.840;2023-07-20T13:03:14;1.63;;;1.25;;
15913;SDS011;8055;51.930;8.840;2023-07-20T13:05:41;1.23;;;1.13;;
15913;SDS011;8055;51.930;8.840;2023-07-20T13:08:07;2.05;;;1.00;;
15913;SDS011;8055;51.930;8.840;2023-07-20T13:10:32;1.65;;;1.10;;
15913;SDS011;8055;51.930;8.840;2023-07-20T13:12:57;2.63;;;1.33;;
15913;SDS011;8055;51.930;8.840;2023-07-20T13:15:24;2.50;;;1.20;;
15913;SDS011;8055;51.930;8.840;2023-07-20T13:17:55;1.85;;;1.25;;
15913;SDS011;8055;51.930;8.840;2023-07-20T13:20:21;2.50;;;1.10;;
15913;SDS011;8055;51.930;8.840;2023-07-20T13:22:46;4.95;;;1.83;;
15913;SDS011;8055;51.930;8.840;2023-07-20T13:25:12;2.25;;;1.15;;
15913;SDS011;8055;51.930;8.840;2023-07-20T13:27:37;1.75;;;1.13;;
15913;SDS011;8055;51.930;8.840;2023-07-20T13:30:03;1.33;;;1.08;;
15913;SDS011;8055;51.930;8.840;2023-07-20T13:32:32;2.60;;;1.05;;
15913;SDS011;8055;51.930;8.840;2023-07-20T13:34:58;1.20;;;1.10;;
15913;SDS011;8055;51.930;8.840;2023-07-20T13:37:24;0.75;;;0.75;;
15913;SDS011;8055;51.930;8.840;2023-07-20T13:39:49;1.15;;;0.90;;
15913;SDS011;8055;51.930;8.840;2023-07-20T13:42:15;0.75;;;0.70;;
15913;SDS011;8055;51.930;8.840;2023-07-20T13:44:40;0.63;;;0.60;;
15913;SDS011;8055;51.930;8.840;2023-07-20T13:47:06;0.80;;;0.80;;
15913;SDS011;8055;51.930;8.840;2023-07-20T13:49:31;0.95;;;0.80;;
15913;SDS011;8055;51.930;8.840;2023-07-20T13:51:57;1.33;;;0.93;;
15913;SDS011;8055;51.930;8.840;2023-07-20T13:54:23;2.75;;;1.30;;
15913;SDS011;8055;51.930;8.840;2023-07-20T13:56:49;1.33;;;1.13;;
15913;SDS011;8055;51.930;8.840;2023-07-20T13:59:14;1.17;;;1.00;;
15913;SDS011;8055;51.930;8.840;2023-07-20T14:01:39;1.05;;;0.93;;
15913;SDS011;8055;51.930;8.840;2023-07-20T14:04:05;1.25;;;1.00;;
15913;SDS011;8055;51.930;8.840;2023-07-20T14:06:31;1.30;;;1.20;;
15913;SDS011;8055;51.930;8.840;2023-07-20T14:08:57;1.20;;;1.10;;
15913;SDS011;8055;51.930;8.840;2023-07-20T14:11:23;0.80;;;0.80;;
15913;SDS011;8055;51.930;8.840;2023-07-20T14:13:49;1.40;;;0.95;;
15913;SDS011;8055;51.930;8.840;2023-07-20T14:16:15;1.35;;;1.10;;
15913;SDS011;8055;51.930;8.840;2023-07-20T14:18:41;0.70;;;0.70;;
15913;SDS011;8055;51.930;8.840;2023-07-20T14:21:06;1.52;;;0.80;;
15913;SDS011;8055;51.930;8.840;2023-07-20T14:23:33;0.70;;;0.70;;
15913;SDS011;8055;51.930;8.840;2023-07-20T14:25:58;2.00;;;0.93;;
15913;SDS011;8055;51.930;8.840;2023-07-20T14:28:24;3.72;;;0.90;;
15913;SDS011;8055;51.930;8.840;2023-07-20T14:30:49;0.77;;;0.77;;
15913;SDS011;8055;51.930;8.840;2023-07-20T14:33:15;1.63;;;0.70;;
15913;SDS011;8055;51.930;8.840;2023-07-20T14:35:40;1.85;;;0.60;;
15913;SDS011;8055;51.930;8.840;2023-07-20T14:38:06;1.38;;;0.90;;
15913;SDS011;8055;51.930;8.840;2023-07-20T14:40:31;1.08;;;0.90;;
15913;SDS011;8055;51.930;8.840;2023-07-20T14:42:57;1.20;;;0.60;;
15913;SDS011;8055;51.930;8.840;2023-07-20T14:45:22;0.80;;;0.60;;
15913;SDS011;8055;51.930;8.840;2023-07-20T14:47:47;1.50;;;0.80;;
15913;SDS011;8055;51.930;8.840;2023-07-20T14:50:18;0.60;;;0.60;;
15913;SDS011;8055;51.930;8.840;2023-07-20T14:52:44;1.23;;;0.63;;
15913;SDS011;8055;51.930;8.840;2023-07-20T14:55:10;1.83;;;0.65;;
15913;SDS011;8055;51.930;8.840;2023-07-20T14:57:36;0.65;;;0.63;;
15913;SDS011;8055;51.930;8.840;2023-07-20T15:00:01;0.60;;;0.57;;
15913;SDS011;8055;51.930;8.840;2023-07-20T15:02:28;1.00;;;0.47;;
15913;SDS011;8055;51.930;8.840;2023-07-20T15:04:54;1.15;;;0.70;;
15913;SDS011;8055;51.930;8.840;2023-07-20T15:07:20;1.25;;;0.60;;